Time;durP1;ratioP1;P1;durP2;ratioP2;P2;SDS_P1;SDS_P2;PMS_P1;PMS_P2;Temp;Humidity;BMP_temperature;BMP_pressure;BME280_temperature;BME280_humidity;BME280_pressure;Samples;Min_cycle;Max_cycle;Signal;HPM_P1;HPM_P2
2022/04/27 00:01:13;;;;;;;0.90;0.70;;;23.10;55.70;;;;;;5104743;28;20032;-45
2022/04/27 00:03:39;;;;;;;1.27;0.68;;;23.10;55.70;;;;;;5103986;28;20040;-45
2022/04/27 00:06:05;;;;;;;0.68;0.68;;;23.20;55.70;;;;;;5104527;28;20039;-44
2022/04/27 00:08:31;;;;;;;0.88;0.70;;;23.20;55.60;;;;;;5104922;28;20024;-44
2022/04/27 00:10:57;;;;;;;1.35;0.60;;;23.10;55.50;;;;;;5104305;28;20054;-44
2022/04/27 00:13:23;;;;;;;0.77;0.68;;;23.10;55.50;;;;;;5104264;28;20642;-43
2022/04/27 00:15:49;;;;;;;0.63;0.60;;;23.10;55.50;;;;;;5104532;28;20031;-46
2022/04/27 00:18:15;;;;;;;1.13;0.80;;;23.10;55.50;;;;;;5104494;28;20060;-44
2022/04/27 00:20:41;;;;;;;0.60;0.60;;;23.10;55.40;;;;;;5103998;28;20032;-44
2022/04/27 00:23:08;;;;;;;0.93;0.60;;;23.10;55.30;;;;;;5104024;28;20016;-44
2022/04/27 00:25:35;;;;;;;0.63;0.63;;;23.10;55.30;;;;;;5094442;28;20036;-43
2022/04/27 00:28:01;;;;;;;0.70;0.70;;;23.10;55.30;;;;;;5090814;28;20032;-44
2022/04/27 00:30:27;;;;;;;0.77;0.70;;;23.10;55.30;;;;;;5103883;28;20031;-44
2022/04/27 00:32:53;;;;;;;0.77;0.65;;;23.10;55.20;;;;;;5104232;28;20036;-44
2022/04/27 00:35:19;;;;;;;1.10;0.63;;;23.10;55.20;;;;;;5103588;28;20031;-43
2022/04/27 00:37:45;;;;;;;0.82;0.52;;;23.00;55.10;;;;;;5104068;28;20020;-43
2022/04/27 00:40:12;;;;;;;1.10;0.65;;;23.00;55.10;;;;;;5103735;28;20059;-44
2022/04/27 00:42:38;;;;;;;0.70;0.60;;;23.00;55.00;;;;;;5103856;28;20032;-43
2022/04/27 00:45:05;;;;;;;0.70;0.70;;;23.00;55.00;;;;;;5102737;28;20040;-44
2022/04/27 00:47:31;;;;;;;;;;;23.00;55.00;;;;;;5104341;28;20094;-43
2022/04/27 00:50:02;;;;;;;2.08;0.90;;;23.00;54.90;;;;;;5103768;28;20367;-45
2022/04/27 00:52:28;;;;;;;1.80;0.90;;;23.00;55.00;;;;;;5103718;28;20031;-43
2022/04/27 00:54:55;;;;;;;1.30;0.70;;;22.90;54.90;;;;;;5098780;28;20036;-43
2022/04/27 00:57:24;;;;;;;1.20;0.65;;;22.90;54.80;;;;;;5094413;28;20024;-44
2022/04/27 00:59:50;;;;;;;1.38;0.60;;;22.90;54.80;;;;;;5103796;28;20051;-44
2022/04/27 01:02:16;;;;;;;1.38;0.70;;;22.90;54.80;;;;;;5102108;28;20028;-43
2022/04/27 01:04:43;;;;;;;0.95;0.80;;;22.90;54.80;;;;;;5102759;28;20101;-43
2022/04/27 01:07:11;;;;;;;0.80;0.70;;;22.80;54.70;;;;;;5103547;28;20035;-43
2022/04/27 01:09:37;;;;;;;0.60;0.57;;;22.80;54.70;;;;;;5103682;28;20038;-45
2022/04/27 01:12:04;;;;;;;2.08;0.77;;;22.80;54.70;;;;;;5103299;28;20052;-44
2022/04/27 01:14:44;;;;;;;0.93;0.60;;;22.80;54.70;;;;;;5103191;28;20032;-43
2022/04/27 01:17:10;;;;;;;0.90;0.70;;;22.80;54.70;;;;;;5101745;28;20040;-44
2022/04/27 01:19:36;;;;;;;1.20;0.80;;;22.80;54.70;;;;;;5103379;28;20146;-43
2022/04/27 01:22:03;;;;;;;0.80;0.70;;;22.70;54.60;;;;;;5103548;28;20036;-44
2022/04/27 01:24:30;;;;;;;0.65;0.65;;;22.70;54.60;;;;;;5100290;28;20043;-44
2022/04/27 01:26:56;;;;;;;0.75;0.70;;;22.70;54.60;;;;;;5082683;28;20041;-43
2022/04/27 01:29:25;;;;;;;1.23;0.70;;;22.70;54.60;;;;;;5100624;28;20016;-44
2022/04/27 01:31:53;;;;;;;3.50;0.82;;;22.70;54.50;;;;;;5103229;28;20027;-44
2022/04/27 01:34:19;;;;;;;1.08;0.60;;;22.70;54.50;;;;;;5102424;28;20023;-43
2022/04/27 01:36:46;;;;;;;1.10;0.80;;;22.70;54.50;;;;;;5103094;28;20027;-43
2022/04/27 01:39:12;;;;;;;0.80;0.70;;;22.70;54.40;;;;;;5094341;28;20027;-46
2022/04/27 01:41:39;;;;;;;0.70;0.70;;;22.60;54.40;;;;;;5085171;28;20044;-43
2022/04/27 01:44:05;;;;;;;1.02;0.70;;;22.60;54.60;;;;;;5088778;28;20040;-43
2022/04/27 01:46:31;;;;;;;2.95;0.80;;;22.60;55.00;;;;;;5090181;28;20031;-43
2022/04/27 01:48:57;;;;;;;2.78;0.80;;;22.60;55.30;;;;;;5101196;28;20038;-42
2022/04/27 01:54:16;;;;;;;1.38;0.85;;;22.60;56.20;;;;;;5071873;28;20108;-42
2022/04/27 01:56:49;;;;;;;2.47;0.85;;;22.60;56.20;;;;;;5090170;28;20437;-43
2022/04/27 01:59:15;;;;;;;6.40;1.10;;;22.50;56.10;;;;;;5098129;28;20028;-42
2022/04/27 02:01:43;;;;;;;3.28;0.98;;;22.50;56.50;;;;;;5093655;28;20032;-40
2022/04/27 02:04:09;;;;;;;;;;;22.50;56.50;;;;;;5100577;28;20052;-48
2022/04/27 02:06:36;;;;;;;10.40;1.35;;;22.50;56.60;;;;;;5095333;28;20944;-43
2022/04/27 02:09:05;;;;;;;9.52;0.98;;;22.50;56.90;;;;;;5101163;28;20034;-43
2022/04/27 02:11:32;;;;;;;1.20;0.90;;;22.50;56.90;;;;;;5102472;28;20070;-42
2022/04/27 02:13:59;;;;;;;3.50;0.90;;;22.50;57.10;;;;;;5102605;28;20091;-42
2022/04/27 02:16:25;;;;;;;4.20;0.90;;;22.50;57.00;;;;;;5102429;28;20032;-42
2022/04/27 02:18:52;;;;;;;3.97;0.85;;;22.40;56.90;;;;;;5102282;28;20053;-43
2022/04/27 02:21:18;;;;;;;4.63;0.90;;;22.40;56.80;;;;;;5102361;28;20028;-42
2022/04/27 02:23:44;;;;;;;7.73;0.90;;;22.40;56.90;;;;;;5102387;28;20024;-41
2022/04/27 02:26:11;;;;;;;3.92;1.00;;;22.40;56.70;;;;;;5086850;28;20035;-43
2022/04/27 02:28:37;;;;;;;5.55;1.00;;;22.40;56.70;;;;;;5094075;28;20028;-42
2022/04/27 02:31:03;;;;;;;2.22;0.90;;;22.40;56.60;;;;;;5102512;28;20054;-44
2022/04/27 02:33:30;;;;;;;3.63;1.30;;;22.40;56.50;;;;;;5102308;28;20035;-42
2022/04/27 02:35:56;;;;;;;5.57;1.15;;;22.30;56.50;;;;;;5101835;28;20031;-41
2022/04/27 02:38:23;;;;;;;4.10;1.00;;;22.30;57.00;;;;;;5102302;28;20038;-44
2022/04/27 02:40:49;;;;;;;2.97;0.80;;;22.30;56.40;;;;;;5102110;28;20544;-43
2022/04/27 02:43:16;;;;;;;7.20;1.10;;;22.30;56.50;;;;;;5102475;28;20020;-42
2022/04/27 02:45:42;;;;;;;5.72;0.90;;;22.30;56.40;;;;;;5101741;28;20059;-42
2022/04/27 02:48:09;;;;;;;2.97;0.93;;;22.30;56.40;;;;;;5102180;28;20024;-41
2022/04/27 02:53:20;;;;;;;1.30;0.80;;;22.20;56.20;;;;;;5101105;28;20267;-42
2022/04/27 02:55:46;;;;;;;1.88;0.70;;;22.20;56.20;;;;;;5090079;28;20397;-42
2022/04/27 02:58:12;;;;;;;2.17;0.95;;;22.20;56.30;;;;;;5096190;28;20066;-43
2022/04/27 03:00:39;;;;;;;6.53;0.95;;;22.20;56.30;;;;;;5102229;28;20127;-41
2022/04/27 03:03:07;;;;;;;;;;;22.10;56.20;;;;;;5102538;28;20059;-41
2022/04/27 03:05:33;;;;;;;1.17;0.70;;;22.10;56.70;;;;;;5101582;28;19927;-43
2022/04/27 03:07:59;;;;;;;2.05;0.82;;;22.10;56.20;;;;;;5098911;28;20337;-41
2022/04/27 03:10:25;;;;;;;1.35;0.70;;;22.10;56.20;;;;;;5105910;28;20107;-44
2022/04/27 03:12:51;;;;;;;3.33;1.52;;;22.10;56.20;;;;;;5105561;28;20034;-46
2022/04/27 03:15:18;;;;;;;1.67;0.80;;;22.00;56.10;;;;;;5105810;28;20030;-42
2022/04/27 03:17:44;;;;;;;1.25;0.70;;;22.00;56.20;;;;;;5105644;28;20166;-43
2022/04/27 03:20:10;;;;;;;1.20;0.80;;;22.00;56.20;;;;;;5105754;28;20089;-42
2022/04/27 03:22:36;;;;;;;0.98;0.80;;;21.90;56.20;;;;;;5105675;28;20031;-43
2022/04/27 03:25:03;;;;;;;1.50;0.60;;;21.90;56.30;;;;;;5104307;28;20068;-43
2022/04/27 03:27:29;;;;;;;2.05;0.80;;;21.90;56.40;;;;;;5104395;28;20132;-42
2022/04/27 03:29:55;;;;;;;2.78;0.80;;;21.90;56.30;;;;;;5105512;28;20043;-42
2022/04/27 03:32:22;;;;;;;1.33;0.77;;;21.80;56.30;;;;;;5105726;28;20024;-42
2022/04/27 03:34:48;;;;;;;1.80;0.90;;;21.80;56.40;;;;;;5105149;28;20024;-42
2022/04/27 03:37:14;;;;;;;2.13;0.90;;;21.80;56.30;;;;;;5104914;28;20056;-42
2022/04/27 03:39:40;;;;;;;1.20;0.70;;;21.80;56.40;;;;;;5105200;28;20039;-42
2022/04/27 03:42:07;;;;;;;1.77;0.80;;;21.80;56.40;;;;;;5104908;28;20020;-43
2022/04/27 03:44:33;;;;;;;4.00;1.00;;;21.80;56.40;;;;;;5105261;28;20036;-43
2022/04/27 03:46:59;;;;;;;1.30;0.60;;;21.70;56.40;;;;;;5105082;28;20100;-43
2022/04/27 03:49:25;;;;;;;2.88;0.98;;;21.70;56.40;;;;;;5104779;28;20024;-44
2022/04/27 03:51:51;;;;;;;2.00;0.80;;;21.70;56.40;;;;;;5105343;28;20058;-42
2022/04/27 03:54:17;;;;;;;0.68;0.68;;;21.70;56.50;;;;;;5105079;28;20103;-42
2022/04/27 03:56:43;;;;;;;1.45;0.77;;;21.60;56.40;;;;;;5085153;28;20067;-43
2022/04/27 03:59:09;;;;;;;1.50;0.80;;;21.70;56.40;;;;;;5100987;28;20115;-42
2022/04/27 04:01:36;;;;;;;1.25;0.77;;;21.60;56.40;;;;;;5104978;28;20066;-42
2022/04/27 04:04:02;;;;;;;1.02;0.70;;;21.60;56.50;;;;;;5104773;28;20175;-42
2022/04/27 04:06:28;;;;;;;0.80;0.68;;;21.60;56.50;;;;;;5098994;28;20115;-42
2022/04/27 04:08:54;;;;;;;1.23;0.68;;;21.60;56.50;;;;;;5104417;28;20035;-42
2022/04/27 04:11:20;;;;;;;0.75;0.60;;;21.50;56.40;;;;;;5104841;28;20024;-43
2022/04/27 04:13:46;;;;;;;0.63;0.63;;;21.60;56.40;;;;;;5104789;28;20107;-42
2022/04/27 04:16:12;;;;;;;0.57;0.52;;;21.50;56.50;;;;;;5104654;28;20053;-42
2022/04/27 04:18:38;;;;;;;1.73;0.70;;;21.50;56.50;;;;;;5104307;28;20024;-42
2022/04/27 04:21:04;;;;;;;1.73;0.80;;;21.50;56.40;;;;;;5104218;28;20032;-42
2022/04/27 04:23:30;;;;;;;1.45;0.65;;;21.50;56.50;;;;;;5104756;28;20095;-42
2022/04/27 04:28:41;;;;;;;1.15;0.63;;;21.40;56.60;;;;;;5104125;28;20038;-43
2022/04/27 04:31:07;;;;;;;1.00;0.60;;;21.40;56.50;;;;;;5104295;28;20039;-42
2022/04/27 04:33:33;;;;;;;0.75;0.52;;;21.40;56.50;;;;;;5104156;28;20027;-43
2022/04/27 04:35:59;;;;;;;0.75;0.63;;;21.30;56.50;;;;;;5104210;28;20028;-43
2022/04/27 04:38:25;;;;;;;1.67;0.80;;;21.30;56.50;;;;;;5103883;28;20028;-42
2022/04/27 04:40:52;;;;;;;0.80;0.70;;;21.30;56.60;;;;;;5104311;28;20037;-42
2022/04/27 04:43:19;;;;;;;1.95;0.77;;;21.30;56.60;;;;;;5104098;28;20035;-43
2022/04/27 04:45:45;;;;;;;1.70;0.80;;;21.30;56.50;;;;;;5103959;28;20073;-42
2022/04/27 04:48:11;;;;;;;1.45;0.50;;;21.30;56.50;;;;;;5103825;28;20039;-43
2022/04/27 04:50:37;;;;;;;1.17;0.68;;;21.20;56.50;;;;;;5103667;28;20031;-43
2022/04/27 04:53:04;;;;;;;0.90;0.70;;;21.20;56.60;;;;;;5103727;28;20028;-43
2022/04/27 04:55:30;;;;;;;;;;;21.10;56.60;;;;;;5094827;28;20032;-43
2022/04/27 04:57:57;;;;;;;0.60;0.60;;;21.20;56.50;;;;;;5089413;28;19946;-42
2022/04/27 05:00:24;;;;;;;1.35;0.93;;;21.10;56.60;;;;;;5103615;28;20528;-42
2022/04/27 05:02:50;;;;;;;1.27;0.75;;;21.10;56.70;;;;;;5104035;28;20040;-42
2022/04/27 05:05:16;;;;;;;0.70;0.60;;;21.10;56.60;;;;;;5102583;28;20618;-42
2022/04/27 05:07:42;;;;;;;1.13;0.60;;;21.10;56.70;;;;;;5103611;28;20028;-42
2022/04/27 05:10:09;;;;;;;1.10;0.80;;;21.10;56.60;;;;;;5103347;28;20024;-42
2022/04/27 05:12:35;;;;;;;0.80;0.47;;;21.10;56.60;;;;;;5103467;28;20055;-42
2022/04/27 05:15:01;;;;;;;1.35;0.63;;;21.00;56.60;;;;;;5103659;28;20032;-42
2022/04/27 05:17:27;;;;;;;0.98;0.60;;;21.00;56.70;;;;;;5103362;28;20061;-43
2022/04/27 05:19:54;;;;;;;0.98;0.60;;;21.00;56.70;;;;;;5102883;28;20036;-44
2022/04/27 05:22:20;;;;;;;0.75;0.70;;;20.90;56.60;;;;;;5103744;28;20396;-42
2022/04/27 05:24:46;;;;;;;0.90;0.50;;;20.90;56.70;;;;;;5099849;28;20044;-43
2022/04/27 05:27:13;;;;;;;0.95;0.68;;;20.90;56.70;;;;;;5082863;28;20024;-44
2022/04/27 05:32:24;;;;;;;0.73;0.60;;;20.90;56.60;;;;;;5103031;28;20043;-43
2022/04/27 05:34:50;;;;;;;1.30;0.60;;;20.90;56.60;;;;;;5103164;28;20036;-42
2022/04/27 05:37:16;;;;;;;1.02;0.63;;;20.90;56.70;;;;;;5102812;28;20035;-42
2022/04/27 05:39:42;;;;;;;1.20;0.70;;;20.80;56.60;;;;;;5102726;28;20088;-43
2022/04/27 05:42:08;;;;;;;0.85;0.63;;;20.80;56.70;;;;;;5103017;28;20028;-42
2022/04/27 05:44:34;;;;;;;1.08;0.80;;;20.80;56.70;;;;;;5102803;28;20043;-42
2022/04/27 05:47:00;;;;;;;1.23;0.60;;;20.80;56.70;;;;;;5102784;28;20023;-42
2022/04/27 05:49:26;;;;;;;0.63;0.60;;;20.70;56.70;;;;;;5102536;28;20096;-42
2022/04/27 05:51:52;;;;;;;1.08;0.63;;;20.70;56.90;;;;;;5102765;28;20031;-42
2022/04/27 05:54:19;;;;;;;0.57;0.57;;;20.70;56.80;;;;;;5102892;28;20088;-42
2022/04/27 05:56:45;;;;;;;1.10;0.73;;;20.70;56.70;;;;;;5082881;28;20032;-42
2022/04/27 05:59:11;;;;;;;0.63;0.60;;;20.70;56.60;;;;;;5098666;28;20032;-41
2022/04/27 06:01:38;;;;;;;0.90;0.50;;;20.60;56.90;;;;;;5090179;28;20095;-42
2022/04/27 06:04:04;;;;;;;1.45;0.70;;;20.60;56.90;;;;;;5082411;28;20052;-42
2022/04/27 06:06:30;;;;;;;1.47;0.67;;;20.60;56.90;;;;;;5084557;28;20028;-43
2022/04/27 06:08:56;;;;;;;0.50;0.50;;;20.60;56.90;;;;;;5102364;28;20032;-42
2022/04/27 06:11:22;;;;;;;1.95;0.60;;;20.50;56.80;;;;;;5102594;28;20082;-46
2022/04/27 06:13:49;;;;;;;0.70;0.50;;;20.50;56.90;;;;;;5102572;28;20028;-44
2022/04/27 06:16:15;;;;;;;0.75;0.60;;;20.50;56.90;;;;;;5102538;28;20035;-42
2022/04/27 06:18:42;;;;;;;0.67;0.60;;;20.50;57.00;;;;;;5102463;28;20464;-41
2022/04/27 06:21:08;;;;;;;0.50;0.50;;;20.50;56.90;;;;;;5102143;28;20031;-42
2022/04/27 06:23:38;;;;;;;1.08;0.60;;;20.40;56.80;;;;;;5102481;28;20023;-42
2022/04/27 06:26:06;;;;;;;1.10;0.70;;;20.40;56.80;;;;;;5101283;28;20044;-42
2022/04/27 06:28:34;;;;;;;;;;;20.40;56.90;;;;;;5102848;28;20029;-42
2022/04/27 06:31:01;;;;;;;1.27;0.60;;;20.40;56.80;;;;;;5102402;28;19947;-42
2022/04/27 06:33:27;;;;;;;0.60;0.60;;;20.40;56.90;;;;;;5102565;28;20039;-42
2022/04/27 06:35:53;;;;;;;1.38;0.93;;;20.30;57.00;;;;;;5102169;28;20181;-42
2022/04/27 06:38:20;;;;;;;0.60;0.60;;;20.30;56.90;;;;;;5102598;28;20111;-42
2022/04/27 06:40:46;;;;;;;1.48;0.73;;;20.30;57.10;;;;;;5102369;28;20113;-42
2022/04/27 06:43:12;;;;;;;1.08;0.52;;;20.30;57.00;;;;;;5106351;28;20020;-42
2022/04/27 06:45:38;;;;;;;0.63;0.50;;;20.30;57.10;;;;;;5106353;28;20079;-42
2022/04/27 06:48:04;;;;;;;0.60;0.60;;;20.20;57.10;;;;;;5105966;28;20022;-42
2022/04/27 06:50:30;;;;;;;2.35;0.60;;;20.20;57.00;;;;;;5105809;28;20020;-43
2022/04/27 06:52:59;;;;;;;1.58;0.68;;;20.20;57.10;;;;;;5106444;28;20020;-42
2022/04/27 06:55:25;;;;;;;0.60;0.47;;;20.20;57.10;;;;;;5097512;28;20032;-41
2022/04/27 06:57:52;;;;;;;1.03;0.50;;;20.20;57.10;;;;;;5091176;28;20028;-42
2022/04/27 07:00:18;;;;;;;1.05;0.60;;;20.10;57.00;;;;;;5105815;28;20020;-42
2022/04/27 07:02:44;;;;;;;0.73;0.50;;;20.10;57.00;;;;;;5106029;28;20032;-42
2022/04/27 07:05:16;;;;;;;1.98;0.60;;;20.10;57.10;;;;;;5105700;28;20070;-42
2022/04/27 07:07:42;;;;;;;0.90;0.47;;;20.10;57.00;;;;;;5104733;28;20028;-42
2022/04/27 07:10:08;;;;;;;0.63;0.50;;;20.10;57.10;;;;;;5105484;28;20028;-43
2022/04/27 07:12:34;;;;;;;1.45;0.50;;;20.00;57.10;;;;;;5105504;28;20031;-42
2022/04/27 07:15:00;;;;;;;0.68;0.68;;;20.00;57.10;;;;;;5105795;28;20040;-42
2022/04/27 07:17:27;;;;;;;1.13;0.60;;;20.00;57.10;;;;;;5105912;28;20039;-43
2022/04/27 07:19:53;;;;;;;1.08;0.63;;;20.00;57.50;;;;;;5105464;28;20034;-42
2022/04/27 07:22:19;;;;;;;0.70;0.50;;;20.00;57.30;;;;;;5105710;28;20028;-42
2022/04/27 07:24:45;;;;;;;1.77;0.60;;;19.90;57.10;;;;;;5104378;28;20053;-42
2022/04/27 07:27:11;;;;;;;0.75;0.63;;;19.90;57.20;;;;;;5105397;28;20089;-43
2022/04/27 07:29:38;;;;;;;1.15;0.50;;;19.90;57.80;;;;;;5085392;28;20028;-42
2022/04/27 07:32:04;;;;;;;1.10;0.50;;;19.90;57.20;;;;;;5088755;28;20031;-42
2022/04/27 07:34:30;;;;;;;1.00;0.60;;;19.90;57.20;;;;;;5085324;28;20024;-42
2022/04/27 07:36:58;;;;;;;1.25;0.50;;;19.90;57.20;;;;;;5096534;28;20031;-42
2022/04/27 07:39:24;;;;;;;0.85;0.63;;;19.80;57.10;;;;;;5105291;28;20035;-42
2022/04/27 07:41:51;;;;;;;1.35;0.60;;;19.80;57.10;;;;;;5104760;28;20032;-43
2022/04/27 07:44:17;;;;;;;0.43;0.43;;;19.80;57.20;;;;;;5105188;28;20475;-43
2022/04/27 07:46:47;;;;;;;0.63;0.50;;;19.80;57.40;;;;;;5104986;28;20020;-42
2022/04/27 07:49:16;;;;;;;0.55;0.50;;;19.70;57.30;;;;;;5105263;28;20080;-42
2022/04/27 07:51:42;;;;;;;1.25;0.52;;;19.70;57.30;;;;;;5104400;28;20083;-43
2022/04/27 07:54:08;;;;;;;1.38;0.70;;;19.70;57.40;;;;;;5104612;28;20612;-42
2022/04/27 07:56:34;;;;;;;1.52;0.50;;;19.70;57.70;;;;;;5086610;28;20036;-42
2022/04/27 07:59:00;;;;;;;0.90;0.60;;;19.60;57.60;;;;;;5099842;28;20028;-42
2022/04/27 08:01:27;;;;;;;0.63;0.60;;;19.60;57.40;;;;;;5104512;28;20054;-42
2022/04/27 08:03:53;;;;;;;1.00;0.55;;;19.60;57.40;;;;;;5104382;28;20052;-42
2022/04/27 08:06:19;;;;;;;0.88;0.50;;;19.60;57.50;;;;;;5104655;28;20575;-43
2022/04/27 08:08:45;;;;;;;0.52;0.50;;;19.60;57.50;;;;;;5104821;28;20067;-42
2022/04/27 08:11:13;;;;;;;0.40;0.40;;;19.50;57.50;;;;;;5103971;28;20028;-41
2022/04/27 08:13:39;;;;;;;0.73;0.60;;;19.50;57.50;;;;;;5104609;28;20032;-41
2022/04/27 08:16:10;;;;;;;1.60;0.60;;;19.50;57.50;;;;;;5104695;28;20048;-42
2022/04/27 08:18:36;;;;;;;0.63;0.60;;;19.50;57.60;;;;;;5104560;28;20087;-42
2022/04/27 08:21:15;;;;;;;2.50;0.60;;;19.40;57.60;;;;;;5104144;28;20036;-41
2022/04/27 08:23:44;;;;;;;1.92;0.60;;;19.40;57.60;;;;;;5104141;28;20481;-41
2022/04/27 08:26:11;;;;;;;0.70;0.43;;;19.40;57.60;;;;;;5089405;28;20036;-42
2022/04/27 08:28:37;;;;;;;0.43;0.40;;;19.40;57.60;;;;;;5095816;28;20103;-42
2022/04/27 08:31:03;;;;;;;0.80;0.60;;;19.40;57.70;;;;;;5104134;28;20059;-42
2022/04/27 08:33:29;;;;;;;0.88;0.75;;;19.30;57.70;;;;;;5104344;28;20024;-41
2022/04/27 08:35:59;;;;;;;1.35;0.50;;;19.30;57.70;;;;;;5103954;28;20024;-42
2022/04/27 08:38:25;;;;;;;0.60;0.60;;;19.30;57.80;;;;;;5104082;28;20208;-43
2022/04/27 08:40:52;;;;;;;0.50;0.50;;;19.30;57.70;;;;;;5103890;28;20032;-41
2022/04/27 08:43:18;;;;;;;1.05;0.60;;;19.20;57.60;;;;;;5103029;28;20019;-42
2022/04/27 08:45:44;;;;;;;0.70;0.50;;;19.20;57.80;;;;;;5103938;28;20496;-42
2022/04/27 08:48:13;;;;;;;1.50;0.60;;;19.20;57.80;;;;;;5103822;28;20024;-41
2022/04/27 08:50:39;;;;;;;4.20;0.60;;;19.20;57.80;;;;;;5103851;28;20273;-43
2022/04/27 08:53:05;;;;;;;1.52;0.52;;;19.10;58.10;;;;;;5103677;28;20066;-42
2022/04/27 08:55:32;;;;;;;0.90;0.43;;;19.20;57.90;;;;;;5102594;28;20088;-42
2022/04/27 08:58:17;;;;;;;0.88;0.40;;;19.10;57.80;;;;;;5102230;28;20265;-42
2022/04/27 09:00:44;;;;;;;1.42;0.60;;;19.10;58.00;;;;;;5103798;28;20039;-41
2022/04/27 09:03:33;;;;;;;0.50;0.50;;;19.10;58.00;;;;;;5103179;28;20026;-41
2022/04/27 09:06:03;;;;;;;1.08;0.60;;;19.10;58.10;;;;;;5102713;28;20067;-42
2022/04/27 09:08:48;;;;;;;0.75;0.63;;;19.00;58.00;;;;;;5103630;28;20100;-42
2022/04/27 09:11:27;;;;;;;1.00;0.45;;;19.00;58.00;;;;;;5103266;28;20517;-42
2022/04/27 09:14:01;;;;;;;0.70;0.50;;;19.00;58.00;;;;;;5103328;28;20024;-42
2022/04/27 09:20:46;;;;;;;2.15;0.40;;;19.00;58.10;;;;;;5103493;28;20039;-42
2022/04/27 09:22:06;;;;;;;1.55;0.60;;;18.90;58.10;;;;;;5102812;28;20400;-41
2022/04/27 09:24:52;;;;;;;0.98;0.55;;;18.90;58.30;;;;;;5102249;28;20039;-41
2022/04/27 09:27:19;;;;;;;0.95;0.45;;;19.00;58.80;;;;;;5083593;28;20021;-42
2022/04/27 09:29:53;;;;;;;;;;;19.00;59.50;;;;;;5103689;28;20024;-41
2022/04/27 09:32:20;;;;;;;0.57;0.40;;;19.00;59.90;;;;;;5101307;28;20589;-42
2022/04/27 09:34:47;;;;;;;0.70;0.40;;;19.10;61.00;;;;;;5103033;28;20039;-41
2022/04/27 09:37:15;;;;;;;1.20;0.57;;;19.10;61.40;;;;;;5102915;28;20055;-42
2022/04/27 09:39:42;;;;;;;0.75;0.50;;;19.10;61.10;;;;;;5103160;28;20035;-42
2022/04/27 09:42:13;;;;;;;0.52;0.40;;;19.10;61.10;;;;;;5102183;28;20022;-41
2022/04/27 09:44:40;;;;;;;0.45;0.38;;;19.20;61.10;;;;;;5095218;28;20520;-41
2022/04/27 09:47:07;;;;;;;0.40;0.30;;;19.20;61.80;;;;;;5102821;28;20028;-42
2022/04/27 09:49:39;;;;;;;0.47;0.40;;;19.30;62.30;;;;;;5102842;28;20062;-41
2022/04/27 09:52:07;;;;;;;0.40;0.35;;;19.30;62.10;;;;;;5102421;28;20049;-41
2022/04/27 09:54:36;;;;;;;0.60;0.50;;;19.30;61.50;;;;;;5102134;28;20020;-42
2022/04/27 09:57:07;;;;;;;0.30;0.30;;;19.30;61.50;;;;;;5102697;28;20548;-41
2022/04/27 09:59:35;;;;;;;0.60;0.40;;;19.40;61.60;;;;;;5102481;28;20028;-42
2022/04/27 10:02:06;;;;;;;0.30;0.30;;;19.40;62.10;;;;;;5102314;28;20027;-42
2022/04/27 10:04:32;;;;;;;0.40;0.30;;;19.50;62.30;;;;;;5102398;28;20144;-41
2022/04/27 10:07:02;;;;;;;0.57;0.40;;;19.50;61.60;;;;;;5102543;28;20028;-41
2022/04/27 10:09:29;;;;;;;0.50;0.40;;;19.60;61.50;;;;;;5102668;28;20559;-41
2022/04/27 10:11:56;;;;;;;0.50;0.30;;;19.60;61.20;;;;;;5102636;28;20024;-42
2022/04/27 10:14:22;;;;;;;0.30;0.30;;;19.60;61.60;;;;;;5101883;28;20039;-43
2022/04/27 10:16:49;;;;;;;0.57;0.40;;;19.60;61.90;;;;;;5102470;28;20662;-41
2022/04/27 10:19:17;;;;;;;0.50;0.30;;;19.70;61.40;;;;;;5102495;28;20038;-41
2022/04/27 10:22:05;;;;;;;0.30;0.30;;;19.70;61.10;;;;;;5102680;28;20032;-42
2022/04/27 10:24:46;;;;;;;0.98;0.30;;;19.70;61.10;;;;;;5101992;28;20476;-42
2022/04/27 10:27:26;;;;;;;0.30;0.30;;;19.80;60.70;;;;;;5082158;28;20036;-42
2022/04/27 10:30:00;;;;;;;0.40;0.40;;;19.80;61.00;;;;;;5082204;28;20032;-43
2022/04/27 10:32:43;;;;;;;0.50;0.40;;;19.80;61.10;;;;;;5082011;28;20025;-42
2022/04/27 10:35:12;;;;;;;1.00;0.38;;;19.90;60.70;;;;;;5081976;28;20036;-41
2022/04/27 10:37:58;;;;;;;0.80;0.32;;;19.90;60.60;;;;;;5099179;28;20091;-42
2022/04/27 10:40:32;;;;;;;0.75;0.40;;;19.90;60.50;;;;;;5102385;28;20086;-42
2022/04/27 10:43:08;;;;;;;0.30;0.30;;;19.90;60.20;;;;;;5101927;28;20076;-42
2022/04/27 10:45:41;;;;;;;0.65;0.40;;;20.00;60.50;;;;;;5102107;28;20067;-42
2022/04/27 10:48:08;;;;;;;0.40;0.35;;;20.10;60.50;;;;;;5102240;28;20016;-42
2022/04/27 10:50:37;;;;;;;0.47;0.40;;;20.00;60.00;;;;;;5102280;28;20777;-42
2022/04/27 10:53:22;;;;;;;0.35;0.32;;;20.10;60.10;;;;;;5101988;28;20039;-41
2022/04/27 10:55:51;;;;;;;1.20;0.40;;;20.10;60.20;;;;;;5101404;28;20036;-42
2022/04/27 10:58:18;;;;;;;0.63;0.30;;;20.10;59.80;;;;;;5101928;28;20100;-42
2022/04/27 11:01:02;;;;;;;0.35;0.30;;;20.10;60.00;;;;;;5102100;28;20036;-42
2022/04/27 11:03:35;;;;;;;0.52;0.40;;;20.20;59.80;;;;;;5101593;28;20060;-44
2022/04/27 11:06:09;;;;;;;0.65;0.30;;;20.20;59.80;;;;;;5101866;28;20382;-42
2022/04/27 11:08:50;;;;;;;0.68;0.40;;;20.20;59.70;;;;;;5102109;28;20028;-42
2022/04/27 11:11:18;;;;;;;0.63;0.40;;;20.10;59.70;;;;;;5101956;28;20032;-42
2022/04/27 11:13:44;;;;;;;0.70;0.38;;;20.10;59.50;;;;;;5101587;28;20111;-41
2022/04/27 11:16:15;;;;;;;0.82;0.40;;;20.20;59.60;;;;;;5100368;28;20035;-41
2022/04/27 11:18:58;;;;;;;0.50;0.40;;;20.30;59.50;;;;;;5102115;28;20031;-41
2022/04/27 11:21:31;;;;;;;0.40;0.30;;;20.30;59.50;;;;;;5101713;28;20031;-41
2022/04/27 11:23:58;;;;;;;0.40;0.40;;;20.30;59.40;;;;;;5101441;28;20017;-41
2022/04/27 11:26:24;;;;;;;0.30;0.30;;;20.20;59.60;;;;;;5085710;28;20033;-41
2022/04/27 11:28:55;;;;;;;0.77;0.30;;;20.30;59.30;;;;;;5097175;28;20028;-41
2022/04/27 11:31:21;;;;;;;0.75;0.40;;;20.30;59.20;;;;;;5105573;28;20028;-41
2022/04/27 11:33:48;;;;;;;0.30;0.30;;;20.30;59.30;;;;;;5103794;28;20024;-41
2022/04/27 11:36:21;;;;;;;1.00;0.40;;;20.30;59.10;;;;;;5104972;28;20039;-41
2022/04/27 11:38:48;;;;;;;0.68;0.28;;;20.30;59.20;;;;;;5085112;28;20273;-41
2022/04/27 11:41:14;;;;;;;0.55;0.40;;;20.30;59.30;;;;;;5084880;28;20035;-41
2022/04/27 11:43:41;;;;;;;0.47;0.30;;;20.30;59.30;;;;;;5093413;28;20111;-41
2022/04/27 11:46:08;;;;;;;0.98;0.50;;;20.30;58.90;;;;;;5105090;28;20035;-41
2022/04/27 11:48:35;;;;;;;0.68;0.50;;;20.40;59.10;;;;;;5105170;28;20031;-41
2022/04/27 11:51:01;;;;;;;1.45;0.32;;;20.40;58.90;;;;;;5104755;28;20477;-41
2022/04/27 11:53:28;;;;;;;0.60;0.30;;;20.40;58.90;;;;;;5104857;28;20028;-41
2022/04/27 11:55:54;;;;;;;0.40;0.40;;;20.30;59.00;;;;;;5102422;28;20287;-41
2022/04/27 11:58:22;;;;;;;1.48;0.50;;;20.30;59.00;;;;;;5104846;28;20042;-41
2022/04/27 12:00:49;;;;;;;0.47;0.30;;;20.30;58.70;;;;;;5099822;28;20060;-41
2022/04/27 12:03:15;;;;;;;;;;;20.40;58.60;;;;;;5085221;28;20092;-41
2022/04/27 12:05:41;;;;;;;0.38;0.30;;;20.40;58.50;;;;;;5084041;28;19966;-42
2022/04/27 12:08:10;;;;;;;0.68;0.45;;;20.40;58.70;;;;;;5100126;28;20050;-41
2022/04/27 12:10:39;;;;;;;0.45;0.35;;;20.30;58.80;;;;;;5104609;28;20568;-41
2022/04/27 12:13:06;;;;;;;0.95;0.30;;;20.30;59.00;;;;;;5104517;28;20012;-41
2022/04/27 12:15:32;;;;;;;0.65;0.35;;;20.30;58.70;;;;;;5104294;28;20024;-42
2022/04/27 12:18:01;;;;;;;0.80;0.50;;;20.30;58.50;;;;;;5102751;28;20667;-41
2022/04/27 12:20:40;;;;;;;0.47;0.40;;;20.30;58.30;;;;;;5104502;28;20046;-41
2022/04/27 12:23:17;;;;;;;1.48;0.40;;;20.30;58.10;;;;;;5103151;28;20132;-43
2022/04/27 12:25:44;;;;;;;0.43;0.32;;;20.20;58.00;;;;;;5093737;28;20040;-41
2022/04/27 12:28:15;;;;;;;0.50;0.35;;;20.20;57.90;;;;;;5084024;28;20033;-42
2022/04/27 12:30:54;;;;;;;0.47;0.40;;;20.20;57.90;;;;;;5083874;28;20073;-41
2022/04/27 12:33:50;;;;;;;0.40;0.40;;;20.20;57.80;;;;;;5084238;28;20105;-42
2022/04/27 12:39:23;;;;;;;1.00;0.40;;;20.10;57.70;;;;;;5104088;28;20086;-41
2022/04/27 12:41:51;;;;;;;0.70;0.40;;;20.10;57.70;;;;;;5103756;28;20032;-42
2022/04/27 12:44:19;;;;;;;0.65;0.43;;;20.00;57.60;;;;;;5103911;28;20047;-43
2022/04/27 12:47:07;;;;;;;1.60;0.40;;;20.10;57.60;;;;;;5103946;28;20039;-41
2022/04/27 12:49:34;;;;;;;1.73;0.50;;;20.10;58.10;;;;;;5103831;28;20024;-42
2022/04/27 12:52:20;;;;;;;0.52;0.47;;;20.00;57.60;;;;;;5103899;28;20028;-42
2022/04/27 12:54:46;;;;;;;0.68;0.40;;;20.00;57.50;;;;;;5101274;28;20036;-43
2022/04/27 12:57:14;;;;;;;0.70;0.57;;;20.00;57.50;;;;;;5083613;28;20069;-43
2022/04/27 13:00:00;;;;;;;0.70;0.50;;;20.00;57.60;;;;;;5083227;28;20032;-42
2022/04/27 13:02:26;;;;;;;2.15;0.40;;;19.90;57.50;;;;;;5083596;28;20056;-45
2022/04/27 13:04:52;;;;;;;0.73;0.60;;;19.90;57.50;;;;;;5091937;28;20078;-42
2022/04/27 13:07:19;;;;;;;0.50;0.40;;;19.90;57.50;;;;;;5103451;28;20031;-42
2022/04/27 13:12:30;;;;;;;0.43;0.40;;;19.90;57.40;;;;;;5103565;28;20066;-43